sensor_id;sensor_type;location;lat;lon;timestamp;P1;durP1;ratioP1;P2;durP2;ratioP2
47025;SDS011;32783;51.756;-2.556;2022-11-21T00:00:40;2.40;;;1.60;;
47025;SDS011;32783;51.756;-2.556;2022-11-21T00:03:07;3.20;;;1.55;;
47025;SDS011;32783;51.756;-2.556;2022-11-21T00:05:33;1.73;;;1.40;;
47025;SDS011;32783;51.756;-2.556;2022-11-21T00:08:03;2.03;;;1.67;;
47025;SDS011;32783;51.756;-2.556;2022-11-21T00:10:29;2.90;;;1.73;;
47025;SDS011;32783;51.756;-2.556;2022-11-21T00:12:54;1.50;;;1.40;;
47025;SDS011;32783;51.756;-2.556;2022-11-21T00:15:21;2.38;;;1.60;;
47025;SDS011;32783;51.756;-2.556;2022-11-21T00:17:47;1.90;;;1.65;;
47025;SDS011;32783;51.756;-2.556;2022-11-21T00:20:12;1.92;;;1.70;;
47025;SDS011;32783;51.756;-2.556;2022-11-21T00:22:37;2.03;;;1.58;;
47025;SDS011;32783;51.756;-2.556;2022-11-21T00:25:03;1.83;;;1.45;;
47025;SDS011;32783;51.756;-2.556;2022-11-21T00:27:29;1.50;;;1.35;;
47025;SDS011;32783;51.756;-2.556;2022-11-21T00:29:54;1.67;;;1.58;;
47025;SDS011;32783;51.756;-2.556;2022-11-21T00:32:20;2.08;;;1.75;;
47025;SDS011;32783;51.756;-2.556;2022-11-21T00:34:45;3.08;;;1.40;;
47025;SDS011;32783;51.756;-2.556;2022-11-21T00:37:10;1.67;;;1.50;;
47025;SDS011;32783;51.756;-2.556;2022-11-21T00:39:36;1.55;;;1.45;;
47025;SDS011;32783;51.756;-2.556;2022-11-21T00:42:01;3.25;;;1.60;;
47025;SDS011;32783;51.756;-2.556;2022-11-21T00:44:27;2.15;;;1.63;;
47025;SDS011;32783;51.756;-2.556;2022-11-21T00:46:52;2.10;;;1.90;;
47025;SDS011;32783;51.756;-2.556;2022-11-21T00:49:18;1.48;;;1.25;;
47025;SDS011;32783;51.756;-2.556;2022-11-21T00:51:43;1.52;;;1.42;;
47025;SDS011;32783;51.756;-2.556;2022-11-21T00:54:08;2.08;;;1.40;;
47025;SDS011;32783;51.756;-2.556;2022-11-21T00:56:34;1.40;;;1.30;;
47025;SDS011;32783;51.756;-2.556;2022-11-21T00:58:59;2.00;;;1.75;;
47025;SDS011;32783;51.756;-2.556;2022-11-21T01:01:25;1.70;;;1.40;;
47025;SDS011;32783;51.756;-2.556;2022-11-21T01:03:50;2.22;;;1.40;;
47025;SDS011;32783;51.756;-2.556;2022-11-21T01:06:15;1.80;;;1.60;;
47025;SDS011;32783;51.756;-2.556;2022-11-21T01:08:42;1.63;;;1.45;;
47025;SDS011;32783;51.756;-2.556;2022-11-21T01:11:10;3.28;;;1.67;;
47025;SDS011;32783;51.756;-2.556;2022-11-21T01:13:37;1.63;;;1.50;;
47025;SDS011;32783;51.756;-2.556;2022-11-21T01:16:07;1.42;;;1.20;;
47025;SDS011;32783;51.756;-2.556;2022-11-21T01:18:40;1.80;;;1.58;;
47025;SDS011;32783;51.756;-2.556;2022-11-21T01:21:06;1.63;;;1.52;;
47025;SDS011;32783;51.756;-2.556;2022-11-21T01:23:36;1.63;;;1.52;;
47025;SDS011;32783;51.756;-2.556;2022-11-21T01:26:05;1.90;;;1.70;;
47025;SDS011;32783;51.756;-2.556;2022-11-21T01:28:31;1.45;;;1.25;;
47025;SDS011;32783;51.756;-2.556;2022-11-21T01:31:04;1.27;;;1.10;;
47025;SDS011;32783;51.756;-2.556;2022-11-21T01:33:34;2.25;;;1.80;;
47025;SDS011;32783;51.756;-2.556;2022-11-21T01:36:06;1.60;;;1.50;;
47025;SDS011;32783;51.756;-2.556;2022-11-21T01:38:35;1.48;;;1.38;;
47025;SDS011;32783;51.756;-2.556;2022-11-21T01:41:01;1.40;;;1.23;;
47025;SDS011;32783;51.756;-2.556;2022-11-21T01:43:26;1.95;;;1.13;;
47025;SDS011;32783;51.756;-2.556;2022-11-21T01:45:53;2.75;;;1.45;;
47025;SDS011;32783;51.756;-2.556;2022-11-21T01:49:03;1.70;;;1.52;;
47025;SDS011;32783;51.756;-2.556;2022-11-21T01:57:27;1.40;;;1.30;;
47025;SDS011;32783;51.756;-2.556;2022-11-21T01:59:37;1.50;;;1.30;;
47025;SDS011;32783;51.756;-2.556;2022-11-21T02:02:06;1.63;;;1.50;;
47025;SDS011;32783;51.756;-2.556;2022-11-21T02:04:33;1.20;;;1.10;;
47025;SDS011;32783;51.756;-2.556;2022-11-21T02:07:00;1.92;;;1.42;;
47025;SDS011;32783;51.756;-2.556;2022-11-21T02:09:28;1.42;;;1.33;;
47025;SDS011;32783;51.756;-2.556;2022-11-21T02:12:10;1.58;;;1.48;;
47025;SDS011;32783;51.756;-2.556;2022-11-21T02:14:41;1.30;;;1.20;;
47025;SDS011;32783;51.756;-2.556;2022-11-21T02:17:08;1.42;;;1.25;;
47025;SDS011;32783;51.756;-2.556;2022-11-21T02:27:26;1.30;;;1.20;;
47025;SDS011;32783;51.756;-2.556;2022-11-21T02:29:52;1.60;;;1.50;;
47025;SDS011;32783;51.756;-2.556;2022-11-21T02:32:21;2.10;;;1.70;;
47025;SDS011;32783;51.756;-2.556;2022-11-21T02:34:48;1.50;;;1.40;;
47025;SDS011;32783;51.756;-2.556;2022-11-21T02:37:13;1.08;;;0.98;;
47025;SDS011;32783;51.756;-2.556;2022-11-21T02:39:39;1.80;;;1.45;;
47025;SDS011;32783;51.756;-2.556;2022-11-21T02:42:06;1.23;;;1.13;;
47025;SDS011;32783;51.756;-2.556;2022-11-21T02:47:13;1.45;;;1.10;;
47025;SDS011;32783;51.756;-2.556;2022-11-21T02:49:45;1.83;;;1.73;;
47025;SDS011;32783;51.756;-2.556;2022-11-21T02:52:24;1.38;;;1.15;;
47025;SDS011;32783;51.756;-2.556;2022-11-21T02:54:50;1.63;;;1.52;;
47025;SDS011;32783;51.756;-2.556;2022-11-21T02:57:15;1.45;;;1.30;;
47025;SDS011;32783;51.756;-2.556;2022-11-21T02:59:41;0.98;;;0.95;;
47025;SDS011;32783;51.756;-2.556;2022-11-21T03:02:06;1.42;;;1.20;;
47025;SDS011;32783;51.756;-2.556;2022-11-21T03:04:32;1.33;;;1.23;;
47025;SDS011;32783;51.756;-2.556;2022-11-21T03:06:57;1.40;;;1.30;;
47025;SDS011;32783;51.756;-2.556;2022-11-21T03:09:22;1.30;;;1.10;;
47025;SDS011;32783;51.756;-2.556;2022-11-21T03:11:48;1.20;;;1.00;;
47025;SDS011;32783;51.756;-2.556;2022-11-21T03:14:13;1.23;;;1.13;;
47025;SDS011;32783;51.756;-2.556;2022-11-21T03:16:38;1.70;;;1.30;;
47025;SDS011;32783;51.756;-2.556;2022-11-21T03:19:04;1.30;;;1.20;;
47025;SDS011;32783;51.756;-2.556;2022-11-21T03:21:29;1.35;;;1.10;;
47025;SDS011;32783;51.756;-2.556;2022-11-21T03:23:55;1.50;;;1.30;;
47025;SDS011;32783;51.756;-2.556;2022-11-21T03:26:20;1.40;;;1.30;;
47025;SDS011;32783;51.756;-2.556;2022-11-21T03:28:45;1.33;;;1.23;;
47025;SDS011;32783;51.756;-2.556;2022-11-21T03:31:11;1.67;;;1.33;;
47025;SDS011;32783;51.756;-2.556;2022-11-21T03:33:36;1.40;;;1.30;;
47025;SDS011;32783;51.756;-2.556;2022-11-21T03:36:01;1.73;;;1.30;;
47025;SDS011;32783;51.756;-2.556;2022-11-21T03:38:27;1.30;;;1.10;;
47025;SDS011;32783;51.756;-2.556;2022-11-21T03:40:52;1.30;;;1.20;;
47025;SDS011;32783;51.756;-2.556;2022-11-21T03:43:18;1.33;;;1.08;;
47025;SDS011;32783;51.756;-2.556;2022-11-21T03:45:46;1.65;;;1.35;;
47025;SDS011;32783;51.756;-2.556;2022-11-21T03:48:12;1.25;;;1.10;;
47025;SDS011;32783;51.756;-2.556;2022-11-21T03:50:40;1.30;;;1.20;;
47025;SDS011;32783;51.756;-2.556;2022-11-21T03:53:07;1.50;;;1.30;;
47025;SDS011;32783;51.756;-2.556;2022-11-21T03:55:32;1.38;;;1.27;;
47025;SDS011;32783;51.756;-2.556;2022-11-21T03:57:58;1.27;;;1.10;;
47025;SDS011;32783;51.756;-2.556;2022-11-21T04:00:23;1.42;;;1.20;;
47025;SDS011;32783;51.756;-2.556;2022-11-21T04:02:48;1.25;;;0.95;;
47025;SDS011;32783;51.756;-2.556;2022-11-21T04:05:14;0.90;;;0.90;;
47025;SDS011;32783;51.756;-2.556;2022-11-21T04:07:39;1.15;;;1.05;;
47025;SDS011;32783;51.756;-2.556;2022-11-21T04:10:05;1.65;;;1.02;;
47025;SDS011;32783;51.756;-2.556;2022-11-21T04:12:30;1.27;;;1.17;;
47025;SDS011;32783;51.756;-2.556;2022-11-21T04:14:56;1.65;;;1.00;;
47025;SDS011;32783;51.756;-2.556;2022-11-21T04:17:21;1.50;;;1.10;;
47025;SDS011;32783;51.756;-2.556;2022-11-21T04:19:46;1.15;;;1.05;;
47025;SDS011;32783;51.756;-2.556;2022-11-21T04:22:12;1.10;;;1.00;;
47025;SDS011;32783;51.756;-2.556;2022-11-21T04:24:37;0.95;;;0.90;;
47025;SDS011;32783;51.756;-2.556;2022-11-21T04:27:03;1.52;;;1.23;;
47025;SDS011;32783;51.756;-2.556;2022-11-21T04:29:28;1.10;;;1.00;;
47025;SDS011;32783;51.756;-2.556;2022-11-21T04:31:53;1.30;;;0.95;;
47025;SDS011;32783;51.756;-2.556;2022-11-21T04:34:19;0.85;;;0.77;;
47025;SDS011;32783;51.756;-2.556;2022-11-21T04:36:44;1.17;;;1.00;;
47025;SDS011;32783;51.756;-2.556;2022-11-21T04:39:10;1.70;;;1.20;;
47025;SDS011;32783;51.756;-2.556;2022-11-21T04:41:35;1.20;;;1.05;;
47025;SDS011;32783;51.756;-2.556;2022-11-21T04:44:00;1.05;;;0.98;;
47025;SDS011;32783;51.756;-2.556;2022-11-21T04:46:26;1.65;;;1.40;;
47025;SDS011;32783;51.756;-2.556;2022-11-21T04:48:51;1.80;;;1.05;;
47025;SDS011;32783;51.756;-2.556;2022-11-21T04:51:17;1.70;;;1.30;;
47025;SDS011;32783;51.756;-2.556;2022-11-21T04:53:42;1.17;;;1.08;;
47025;SDS011;32783;51.756;-2.556;2022-11-21T04:56:07;1.27;;;1.00;;
47025;SDS011;32783;51.756;-2.556;2022-11-21T04:58:33;1.42;;;1.13;;
47025;SDS011;32783;51.756;-2.556;2022-11-21T05:01:04;1.00;;;0.80;;
47025;SDS011;32783;51.756;-2.556;2022-11-21T05:03:31;0.82;;;0.80;;
47025;SDS011;32783;51.756;-2.556;2022-11-21T05:05:56;1.20;;;1.00;;
47025;SDS011;32783;51.756;-2.556;2022-11-21T05:08:21;1.40;;;1.00;;
47025;SDS011;32783;51.756;-2.556;2022-11-21T05:10:47;1.25;;;1.00;;
47025;SDS011;32783;51.756;-2.556;2022-11-21T05:13:30;1.17;;;1.00;;
47025;SDS011;32783;51.756;-2.556;2022-11-21T05:15:56;1.30;;;0.90;;
47025;SDS011;32783;51.756;-2.556;2022-11-21T05:18:21;0.70;;;0.70;;
47025;SDS011;32783;51.756;-2.556;2022-11-21T05:20:47;1.63;;;1.27;;
47025;SDS011;32783;51.756;-2.556;2022-11-21T05:23:12;1.10;;;0.82;;
47025;SDS011;32783;51.756;-2.556;2022-11-21T05:25:38;1.20;;;1.10;;
47025;SDS011;32783;51.756;-2.556;2022-11-21T05:28:03;0.80;;;0.80;;
47025;SDS011;32783;51.756;-2.556;2022-11-21T05:30:29;1.08;;;0.90;;
47025;SDS011;32783;51.756;-2.556;2022-11-21T05:32:54;1.42;;;1.13;;
47025;SDS011;32783;51.756;-2.556;2022-11-21T05:35:20;1.17;;;1.00;;
47025;SDS011;32783;51.756;-2.556;2022-11-21T05:37:45;0.93;;;0.90;;
47025;SDS011;32783;51.756;-2.556;2022-11-21T05:40:11;1.05;;;0.95;;
47025;SDS011;32783;51.756;-2.556;2022-11-21T05:42:39;1.73;;;1.08;;
47025;SDS011;32783;51.756;-2.556;2022-11-21T05:45:24;0.70;;;0.70;;
47025;SDS011;32783;51.756;-2.556;2022-11-21T05:47:50;2.17;;;1.15;;
47025;SDS011;32783;51.756;-2.556;2022-11-21T05:50:15;1.27;;;0.90;;
47025;SDS011;32783;51.756;-2.556;2022-11-21T05:52:41;1.10;;;1.00;;
47025;SDS011;32783;51.756;-2.556;2022-11-21T05:55:06;1.50;;;1.17;;
47025;SDS011;32783;51.756;-2.556;2022-11-21T05:57:32;1.08;;;0.98;;
47025;SDS011;32783;51.756;-2.556;2022-11-21T05:59:57;1.10;;;0.80;;
47025;SDS011;32783;51.756;-2.556;2022-11-21T06:02:23;1.02;;;0.85;;
47025;SDS011;32783;51.756;-2.556;2022-11-21T06:05:07;1.00;;;0.90;;
47025;SDS011;32783;51.756;-2.556;2022-11-21T06:07:32;1.10;;;1.00;;
47025;SDS011;32783;51.756;-2.556;2022-11-21T06:09:58;0.85;;;0.70;;
47025;SDS011;32783;51.756;-2.556;2022-11-21T06:12:23;0.73;;;0.73;;
47025;SDS011;32783;51.756;-2.556;2022-11-21T06:14:48;0.90;;;0.70;;
47025;SDS011;32783;51.756;-2.556;2022-11-21T06:17:14;0.88;;;0.80;;
47025;SDS011;32783;51.756;-2.556;2022-11-21T06:19:39;1.27;;;0.90;;
47025;SDS011;32783;51.756;-2.556;2022-11-21T06:22:05;1.92;;;1.00;;
47025;SDS011;32783;51.756;-2.556;2022-11-21T06:24:30;0.82;;;0.75;;
47025;SDS011;32783;51.756;-2.556;2022-11-21T06:26:55;1.30;;;1.08;;
47025;SDS011;32783;51.756;-2.556;2022-11-21T06:29:21;0.85;;;0.80;;
47025;SDS011;32783;51.756;-2.556;2022-11-21T06:31:46;1.00;;;0.75;;
47025;SDS011;32783;51.756;-2.556;2022-11-21T06:34:12;0.73;;;0.73;;
47025;SDS011;32783;51.756;-2.556;2022-11-21T06:36:37;1.23;;;0.80;;
47025;SDS011;32783;51.756;-2.556;2022-11-21T06:39:03;1.48;;;0.80;;
47025;SDS011;32783;51.756;-2.556;2022-11-21T06:41:28;0.70;;;0.68;;
47025;SDS011;32783;51.756;-2.556;2022-11-21T06:43:56;1.02;;;0.90;;
47025;SDS011;32783;51.756;-2.556;2022-11-21T06:46:23;0.77;;;0.70;;
47025;SDS011;32783;51.756;-2.556;2022-11-21T06:48:49;1.13;;;0.80;;
47025;SDS011;32783;51.756;-2.556;2022-11-21T06:53:41;0.85;;;0.75;;
47025;SDS011;32783;51.756;-2.556;2022-11-21T06:56:07;1.38;;;0.80;;
47025;SDS011;32783;51.756;-2.556;2022-11-21T06:58:32;1.10;;;0.80;;
47025;SDS011;32783;51.756;-2.556;2022-11-21T07:01:02;0.80;;;0.70;;
47025;SDS011;32783;51.756;-2.556;2022-11-21T07:03:29;1.08;;;0.80;;
47025;SDS011;32783;51.756;-2.556;2022-11-21T07:05:54;0.95;;;0.80;;
47025;SDS011;32783;51.756;-2.556;2022-11-21T07:08:23;1.15;;;1.00;;
47025;SDS011;32783;51.756;-2.556;2022-11-21T07:10:48;0.98;;;0.70;;
47025;SDS011;32783;51.756;-2.556;2022-11-21T07:13:14;1.10;;;0.80;;
47025;SDS011;32783;51.756;-2.556;2022-11-21T07:15:46;1.00;;;0.90;;
47025;SDS011;32783;51.756;-2.556;2022-11-21T07:18:12;0.95;;;0.85;;
47025;SDS011;32783;51.756;-2.556;2022-11-21T07:20:38;0.93;;;0.60;;
47025;SDS011;32783;51.756;-2.556;2022-11-21T07:23:03;1.55;;;1.10;;
47025;SDS011;32783;51.756;-2.556;2022-11-21T07:25:29;0.50;;;0.50;;
47025;SDS011;32783;51.756;-2.556;2022-11-21T07:27:57;0.70;;;0.60;;
47025;SDS011;32783;51.756;-2.556;2022-11-21T07:30:23;0.68;;;0.68;;
47025;SDS011;32783;51.756;-2.556;2022-11-21T07:32:55;1.63;;;0.90;;
47025;SDS011;32783;51.756;-2.556;2022-11-21T07:35:21;0.73;;;0.57;;
47025;SDS011;32783;51.756;-2.556;2022-11-21T07:37:46;1.48;;;0.60;;
47025;SDS011;32783;51.756;-2.556;2022-11-21T07:40:12;1.42;;;0.98;;
47025;SDS011;32783;51.756;-2.556;2022-11-21T07:42:37;3.38;;;0.90;;
47025;SDS011;32783;51.756;-2.556;2022-11-21T07:45:03;1.27;;;1.10;;
47025;SDS011;32783;51.756;-2.556;2022-11-21T07:47:28;0.90;;;0.75;;
47025;SDS011;32783;51.756;-2.556;2022-11-21T07:49:54;0.90;;;0.70;;
47025;SDS011;32783;51.756;-2.556;2022-11-21T07:52:19;1.55;;;0.45;;
47025;SDS011;32783;51.756;-2.556;2022-11-21T07:54:45;0.77;;;0.70;;
47025;SDS011;32783;51.756;-2.556;2022-11-21T07:57:10;2.38;;;0.70;;
47025;SDS011;32783;51.756;-2.556;2022-11-21T07:59:35;0.80;;;0.70;;
47025;SDS011;32783;51.756;-2.556;2022-11-21T08:02:02;0.90;;;0.70;;
47025;SDS011;32783;51.756;-2.556;2022-11-21T08:04:28;0.90;;;0.60;;
47025;SDS011;32783;51.756;-2.556;2022-11-21T08:06:53;1.10;;;0.77;;
47025;SDS011;32783;51.756;-2.556;2022-11-21T08:09:19;1.02;;;0.52;;
47025;SDS011;32783;51.756;-2.556;2022-11-21T08:11:44;1.20;;;0.60;;
47025;SDS011;32783;51.756;-2.556;2022-11-21T08:14:10;0.70;;;0.50;;
47025;SDS011;32783;51.756;-2.556;2022-11-21T08:16:35;1.15;;;0.70;;
47025;SDS011;32783;51.756;-2.556;2022-11-21T08:19:01;1.00;;;0.80;;
47025;SDS011;32783;51.756;-2.556;2022-11-21T08:21:26;2.47;;;0.60;;
47025;SDS011;32783;51.756;-2.556;2022-11-21T08:23:52;0.80;;;0.60;;
47025;SDS011;32783;51.756;-2.556;2022-11-21T08:26:18;2.15;;;0.90;;
47025;SDS011;32783;51.756;-2.556;2022-11-21T08:28:43;3.22;;;1.05;;
47025;SDS011;32783;51.756;-2.556;2022-11-21T08:31:09;4.13;;;0.85;;
47025;SDS011;32783;51.756;-2.556;2022-11-21T08:33:34;2.03;;;0.80;;
47025;SDS011;32783;51.756;-2.556;2022-11-21T08:36:03;1.40;;;0.70;;
47025;SDS011;32783;51.756;-2.556;2022-11-21T08:40:54;2.17;;;0.90;;
47025;SDS011;32783;51.756;-2.556;2022-11-21T08:43:38;1.50;;;0.73;;
47025;SDS011;32783;51.756;-2.556;2022-11-21T08:46:04;1.25;;;0.70;;
47025;SDS011;32783;51.756;-2.556;2022-11-21T08:48:30;2.60;;;0.75;;
47025;SDS011;32783;51.756;-2.556;2022-11-21T08:50:56;1.80;;;0.70;;
47025;SDS011;32783;51.756;-2.556;2022-11-21T08:53:21;1.10;;;0.65;;
47025;SDS011;32783;51.756;-2.556;2022-11-21T08:55:47;2.33;;;0.95;;
47025;SDS011;32783;51.756;-2.556;2022-11-21T08:58:12;2.95;;;1.15;;
47025;SDS011;32783;51.756;-2.556;2022-11-21T09:00:38;2.35;;;0.70;;
47025;SDS011;32783;51.756;-2.556;2022-11-21T09:03:04;2.35;;;0.77;;
47025;SDS011;32783;51.756;-2.556;2022-11-21T09:05:30;3.60;;;0.88;;
47025;SDS011;32783;51.756;-2.556;2022-11-21T09:07:56;1.52;;;1.00;;
47025;SDS011;32783;51.756;-2.556;2022-11-21T09:10:22;2.45;;;0.88;;
47025;SDS011;32783;51.756;-2.556;2022-11-21T09:12:48;1.60;;;0.70;;
47025;SDS011;32783;51.756;-2.556;2022-11-21T09:15:13;0.98;;;0.70;;
47025;SDS011;32783;51.756;-2.556;2022-11-21T09:18:01;2.28;;;0.73;;
47025;SDS011;32783;51.756;-2.556;2022-11-21T09:20:31;1.20;;;0.70;;
47025;SDS011;32783;51.756;-2.556;2022-11-21T09:23:02;2.90;;;0.80;;
47025;SDS011;32783;51.756;-2.556;2022-11-21T09:25:38;1.80;;;0.90;;
47025;SDS011;32783;51.756;-2.556;2022-11-21T09:28:04;4.07;;;0.60;;
47025;SDS011;32783;51.756;-2.556;2022-11-21T09:30:31;1.88;;;0.60;;
47025;SDS011;32783;51.756;-2.556;2022-11-21T09:33:00;1.08;;;0.75;;
47025;SDS011;32783;51.756;-2.556;2022-11-21T09:35:26;0.90;;;0.60;;
47025;SDS011;32783;51.756;-2.556;2022-11-21T09:37:51;1.85;;;0.68;;
47025;SDS011;32783;51.756;-2.556;2022-11-21T09:40:17;0.90;;;0.55;;
47025;SDS011;32783;51.756;-2.556;2022-11-21T09:43:05;4.70;;;0.93;;
47025;SDS011;32783;51.756;-2.556;2022-11-21T09:48:09;5.28;;;1.48;;
47025;SDS011;32783;51.756;-2.556;2022-11-21T09:50:56;1.85;;;0.80;;
47025;SDS011;32783;51.756;-2.556;2022-11-21T09:53:59;2.72;;;1.60;;
47025;SDS011;32783;51.756;-2.556;2022-11-21T09:56:17;2.40;;;1.00;;
47025;SDS011;32783;51.756;-2.556;2022-11-21T10:01:28;2.70;;;1.23;;
47025;SDS011;32783;51.756;-2.556;2022-11-21T10:03:54;1.33;;;1.20;;
47025;SDS011;32783;51.756;-2.556;2022-11-21T10:06:20;1.38;;;0.85;;
47025;SDS011;32783;51.756;-2.556;2022-11-21T10:11:48;1.52;;;1.10;;
47025;SDS011;32783;51.756;-2.556;2022-11-21T10:20:25;1.35;;;1.00;;
47025;SDS011;32783;51.756;-2.556;2022-11-21T10:25:24;1.73;;;1.15;;
47025;SDS011;32783;51.756;-2.556;2022-11-21T10:27:52;1.65;;;0.85;;
47025;SDS011;32783;51.756;-2.556;2022-11-21T10:30:20;1.67;;;1.10;;
47025;SDS011;32783;51.756;-2.556;2022-11-21T10:32:49;1.48;;;1.10;;
47025;SDS011;32783;51.756;-2.556;2022-11-21T10:35:22;1.75;;;1.05;;
47025;SDS011;32783;51.756;-2.556;2022-11-21T10:45:57;1.20;;;0.80;;
47025;SDS011;32783;51.756;-2.556;2022-11-21T10:48:22;1.10;;;0.80;;
47025;SDS011;32783;51.756;-2.556;2022-11-21T10:53:35;1.08;;;0.50;;
47025;SDS011;32783;51.756;-2.556;2022-11-21T10:56:22;0.95;;;0.70;;
47025;SDS011;32783;51.756;-2.556;2022-11-21T10:58:54;1.13;;;0.77;;
47025;SDS011;32783;51.756;-2.556;2022-11-21T11:06:32;1.35;;;0.80;;
47025;SDS011;32783;51.756;-2.556;2022-11-21T11:08:57;1.50;;;0.80;;
47025;SDS011;32783;51.756;-2.556;2022-11-21T11:11:23;1.23;;;0.82;;
47025;SDS011;32783;51.756;-2.556;2022-11-21T11:14:05;0.95;;;0.60;;
47025;SDS011;32783;51.756;-2.556;2022-11-21T11:16:37;1.25;;;0.70;;
47025;SDS011;32783;51.756;-2.556;2022-11-21T11:29:18;3.00;;;1.25;;
47025;SDS011;32783;51.756;-2.556;2022-11-21T11:31:49;3.13;;;0.60;;
47025;SDS011;32783;51.756;-2.556;2022-11-21T11:34:16;3.65;;;0.70;;
47025;SDS011;32783;51.756;-2.556;2022-11-21T11:46:07;1.87;;;0.70;;
47025;SDS011;32783;51.756;-2.556;2022-11-21T11:48:55;1.00;;;0.52;;
47025;SDS011;32783;51.756;-2.556;2022-11-21T11:51:38;3.10;;;0.55;;
47025;SDS011;32783;51.756;-2.556;2022-11-21T11:54:16;1.33;;;0.65;;
47025;SDS011;32783;51.756;-2.556;2022-11-21T11:56:44;1.65;;;0.70;;
47025;SDS011;32783;51.756;-2.556;2022-11-21T11:59:27;1.38;;;0.77;;
47025;SDS011;32783;51.756;-2.556;2022-11-21T12:02:00;0.80;;;0.50;;
47025;SDS011;32783;51.756;-2.556;2022-11-21T12:04:31;1.20;;;0.50;;
47025;SDS011;32783;51.756;-2.556;2022-11-21T12:07:08;1.63;;;0.93;;
47025;SDS011;32783;51.756;-2.556;2022-11-21T12:14:53;2.15;;;0.60;;
47025;SDS011;32783;51.756;-2.556;2022-11-21T12:18:03;1.10;;;0.60;;
47025;SDS011;32783;51.756;-2.556;2022-11-21T12:24:06;1.00;;;0.50;;
47025;SDS011;32783;51.756;-2.556;2022-11-21T12:34:56;0.73;;;0.40;;
47025;SDS011;32783;51.756;-2.556;2022-11-21T12:43:16;0.75;;;0.60;;
47025;SDS011;32783;51.756;-2.556;2022-11-21T12:48:17;1.35;;;0.50;;
47025;SDS011;32783;51.756;-2.556;2022-11-21T12:57:12;2.07;;;0.60;;
47025;SDS011;32783;51.756;-2.556;2022-11-21T13:05:23;1.35;;;0.50;;
47025;SDS011;32783;51.756;-2.556;2022-11-21T13:07:59;2.45;;;0.60;;
47025;SDS011;32783;51.756;-2.556;2022-11-21T13:10:25;1.85;;;0.82;;
47025;SDS011;32783;51.756;-2.556;2022-11-21T13:13:04;4.63;;;0.60;;
47025;SDS011;32783;51.756;-2.556;2022-11-21T13:18:25;1.60;;;0.55;;
47025;SDS011;32783;51.756;-2.556;2022-11-21T13:20:53;1.63;;;0.50;;
47025;SDS011;32783;51.756;-2.556;2022-11-21T13:23:38;3.55;;;0.82;;
47025;SDS011;32783;51.756;-2.556;2022-11-21T13:28:49;1.85;;;0.90;;
47025;SDS011;32783;51.756;-2.556;2022-11-21T13:31:32;3.63;;;0.73;;
47025;SDS011;32783;51.756;-2.556;2022-11-21T13:33:59;1.25;;;0.65;;
47025;SDS011;32783;51.756;-2.556;2022-11-21T13:47:39;1.42;;;0.70;;
47025;SDS011;32783;51.756;-2.556;2022-11-21T13:58:36;1.05;;;0.60;;
47025;SDS011;32783;51.756;-2.556;2022-11-21T14:03:57;1.88;;;0.40;;
47025;SDS011;32783;51.756;-2.556;2022-11-21T14:06:45;1.15;;;0.75;;
47025;SDS011;32783;51.756;-2.556;2022-11-21T14:11:47;0.98;;;0.50;;
47025;SDS011;32783;51.756;-2.556;2022-11-21T14:14:28;3.17;;;0.77;;
47025;SDS011;32783;51.756;-2.556;2022-11-21T14:17:02;0.82;;;0.30;;
47025;SDS011;32783;51.756;-2.556;2022-11-21T14:19:32;1.50;;;0.50;;
47025;SDS011;32783;51.756;-2.556;2022-11-21T14:21:59;1.92;;;0.77;;
47025;SDS011;32783;51.756;-2.556;2022-11-21T14:24:24;1.13;;;0.45;;
47025;SDS011;32783;51.756;-2.556;2022-11-21T14:26:50;1.15;;;0.50;;
47025;SDS011;32783;51.756;-2.556;2022-11-21T14:29:17;0.80;;;0.30;;
47025;SDS011;32783;51.756;-2.556;2022-11-21T14:31:46;0.50;;;0.38;;
47025;SDS011;32783;51.756;-2.556;2022-11-21T14:34:12;1.48;;;0.50;;
47025;SDS011;32783;51.756;-2.556;2022-11-21T14:36:48;0.60;;;0.43;;
47025;SDS011;32783;51.756;-2.556;2022-11-21T14:39:13;1.02;;;0.40;;
47025;SDS011;32783;51.756;-2.556;2022-11-21T14:41:40;0.43;;;0.40;;
47025;SDS011;32783;51.756;-2.556;2022-11-21T14:46:33;1.80;;;0.52;;
47025;SDS011;32783;51.756;-2.556;2022-11-21T14:54:50;0.80;;;0.47;;
47025;SDS011;32783;51.756;-2.556;2022-11-21T14:57:31;1.25;;;0.47;;
47025;SDS011;32783;51.756;-2.556;2022-11-21T14:59:58;1.27;;;0.32;;
47025;SDS011;32783;51.756;-2.556;2022-11-21T15:02:24;0.50;;;0.30;;
47025;SDS011;32783;51.756;-2.556;2022-11-21T15:04:52;0.80;;;0.50;;
47025;SDS011;32783;51.756;-2.556;2022-11-21T15:07:21;0.40;;;0.30;;
47025;SDS011;32783;51.756;-2.556;2022-11-21T15:09:48;0.77;;;0.40;;
47025;SDS011;32783;51.756;-2.556;2022-11-21T15:12:18;0.65;;;0.40;;
47025;SDS011;32783;51.756;-2.556;2022-11-21T15:14:48;0.73;;;0.30;;
47025;SDS011;32783;51.756;-2.556;2022-11-21T15:17:16;0.80;;;0.43;;
47025;SDS011;32783;51.756;-2.556;2022-11-21T15:19:44;1.02;;;0.30;;
47025;SDS011;32783;51.756;-2.556;2022-11-21T15:22:31;0.30;;;0.28;;
47025;SDS011;32783;51.756;-2.556;2022-11-21T15:25:06;2.33;;;0.63;;
47025;SDS011;32783;51.756;-2.556;2022-11-21T15:27:49;2.03;;;0.32;;
47025;SDS011;32783;51.756;-2.556;2022-11-21T15:35:40;1.42;;;0.30;;
47025;SDS011;32783;51.756;-2.556;2022-11-21T15:43:49;1.02;;;0.20;;
47025;SDS011;32783;51.756;-2.556;2022-11-21T15:46:32;0.45;;;0.25;;
47025;SDS011;32783;51.756;-2.556;2022-11-21T15:48:59;0.47;;;0.25;;
47025;SDS011;32783;51.756;-2.556;2022-11-21T15:51:29;1.52;;;0.40;;
47025;SDS011;32783;51.756;-2.556;2022-11-21T15:53:56;0.98;;;0.45;;
47025;SDS011;32783;51.756;-2.556;2022-11-21T15:56:21;0.68;;;0.43;;
47025;SDS011;32783;51.756;-2.556;2022-11-21T15:58:47;0.45;;;0.28;;
47025;SDS011;32783;51.756;-2.556;2022-11-21T16:01:13;0.85;;;0.20;;
47025;SDS011;32783;51.756;-2.556;2022-11-21T16:03:42;0.45;;;0.38;;
47025;SDS011;32783;51.756;-2.556;2022-11-21T16:06:08;2.08;;;0.40;;
47025;SDS011;32783;51.756;-2.556;2022-11-21T16:08:34;1.20;;;0.30;;
47025;SDS011;32783;51.756;-2.556;2022-11-21T16:10:59;1.02;;;0.50;;
47025;SDS011;32783;51.756;-2.556;2022-11-21T16:13:25;0.75;;;0.28;;
47025;SDS011;32783;51.756;-2.556;2022-11-21T16:15:51;0.52;;;0.30;;
47025;SDS011;32783;51.756;-2.556;2022-11-21T16:18:16;0.22;;;0.20;;
47025;SDS011;32783;51.756;-2.556;2022-11-21T16:20:41;1.13;;;0.32;;
47025;SDS011;32783;51.756;-2.556;2022-11-21T16:23:08;0.43;;;0.30;;
47025;SDS011;32783;51.756;-2.556;2022-11-21T16:25:37;4.18;;;0.60;;
47025;SDS011;32783;51.756;-2.556;2022-11-21T16:28:13;0.95;;;0.30;;
47025;SDS011;32783;51.756;-2.556;2022-11-21T16:30:39;2.50;;;0.20;;
47025;SDS011;32783;51.756;-2.556;2022-11-21T16:33:04;0.93;;;0.32;;
47025;SDS011;32783;51.756;-2.556;2022-11-21T16:35:30;1.30;;;0.40;;
47025;SDS011;32783;51.756;-2.556;2022-11-21T16:37:56;0.63;;;0.60;;
47025;SDS011;32783;51.756;-2.556;2022-11-21T16:40:21;1.45;;;0.40;;
47025;SDS011;32783;51.756;-2.556;2022-11-21T16:42:46;2.42;;;0.47;;
47025;SDS011;32783;51.756;-2.556;2022-11-21T16:45:12;1.20;;;0.55;;
47025;SDS011;32783;51.756;-2.556;2022-11-21T16:47:37;1.95;;;0.45;;
47025;SDS011;32783;51.756;-2.556;2022-11-21T16:50:03;2.90;;;0.40;;
47025;SDS011;32783;51.756;-2.556;2022-11-21T16:52:32;0.73;;;0.43;;
47025;SDS011;32783;51.756;-2.556;2022-11-21T16:54:59;1.05;;;0.40;;
47025;SDS011;32783;51.756;-2.556;2022-11-21T16:57:26;0.60;;;0.30;;
47025;SDS011;32783;51.756;-2.556;2022-11-21T16:59:51;0.63;;;0.30;;
47025;SDS011;32783;51.756;-2.556;2022-11-21T17:02:17;2.47;;;0.50;;
47025;SDS011;32783;51.756;-2.556;2022-11-21T17:04:42;1.40;;;0.38;;
47025;SDS011;32783;51.756;-2.556;2022-11-21T17:07:08;0.70;;;0.30;;
47025;SDS011;32783;51.756;-2.556;2022-11-21T17:09:33;5.85;;;1.33;;
47025;SDS011;32783;51.756;-2.556;2022-11-21T17:11:59;3.47;;;0.55;;
47025;SDS011;32783;51.756;-2.556;2022-11-21T17:14:24;0.60;;;0.38;;
47025;SDS011;32783;51.756;-2.556;2022-11-21T17:16:50;3.80;;;0.40;;
47025;SDS011;32783;51.756;-2.556;2022-11-21T17:19:15;0.82;;;0.40;;